Time;durP1;ratioP1;P1;durP2;ratioP2;P2;SDS_P1;SDS_P2;PMS_P1;PMS_P2;Temp;Humidity;BMP_temperature;BMP_pressure;BME280_temperature;BME280_humidity;BME280_pressure;Samples;Min_cycle;Max_cycle;Signal;HPM_P1;HPM_P2
2023/11/07 00:00:03;;;;;;;7.15;1.67;;;8.50;99.90;;;;;;4974910;28;20365;-63
2023/11/07 00:02:28;;;;;;;7.43;1.92;;;8.50;99.90;;;;;;4971131;28;20027;-63
2023/11/07 00:04:56;;;;;;;11.65;1.98;;;8.60;99.90;;;;;;4978881;28;20019;-63
2023/11/07 00:07:27;;;;;;;9.02;2.72;;;8.60;99.90;;;;;;4977152;28;20073;-63
2023/11/07 00:09:54;;;;;;;7.97;1.90;;;8.60;99.90;;;;;;4977605;28;20502;-63
2023/11/07 00:12:21;;;;;;;6.57;2.00;;;8.60;99.90;;;;;;4981948;28;20457;-63
2023/11/07 00:14:47;;;;;;;10.80;2.13;;;8.70;99.90;;;;;;4978515;28;20023;-63
2023/11/07 00:17:13;;;;;;;10.93;2.17;;;8.70;99.90;;;;;;4979608;28;20038;-63
2023/11/07 00:19:39;;;;;;;7.97;2.22;;;8.70;99.90;;;;;;4978135;28;20031;-63
2023/11/07 00:22:04;;;;;;;8.38;1.95;;;8.80;99.90;;;;;;4978322;28;20019;-63
2023/11/07 00:24:30;;;;;;;5.65;1.92;;;8.80;99.90;;;;;;4976186;28;20414;-63
2023/11/07 00:26:57;;;;;;;6.88;1.58;;;8.80;99.90;;;;;;4974284;28;20022;-64
2023/11/07 00:29:25;;;;;;;7.75;1.88;;;8.90;99.90;;;;;;4978696;28;20022;-63
2023/11/07 00:31:51;;;;;;;7.25;1.80;;;8.90;99.90;;;;;;4977877;28;20022;-63
2023/11/07 00:34:20;;;;;;;5.45;2.00;;;8.90;99.90;;;;;;4979208;28;20050;-63
2023/11/07 00:36:48;;;;;;;5.93;1.88;;;8.90;99.90;;;;;;4976663;28;20030;-63
2023/11/07 00:39:18;;;;;;;6.97;1.90;;;8.90;99.90;;;;;;4983803;28;20041;-63
2023/11/07 00:41:44;;;;;;;9.63;2.03;;;8.80;99.90;;;;;;4982727;28;20027;-63
2023/11/07 00:44:10;;;;;;;7.95;1.98;;;8.80;99.90;;;;;;4981683;28;20154;-63
2023/11/07 00:46:39;;;;;;;10.18;1.70;;;8.90;99.90;;;;;;4978309;28;20023;-63
2023/11/07 00:49:05;;;;;;;9.45;1.80;;;8.90;99.90;;;;;;4974821;28;20041;-64
2023/11/07 00:51:31;;;;;;;6.93;2.00;;;8.90;99.90;;;;;;4978035;28;20027;-63
2023/11/07 00:53:57;;;;;;;9.50;2.30;;;8.90;99.90;;;;;;4979403;28;20027;-62
2023/11/07 00:56:23;;;;;;;8.07;1.98;;;8.90;99.90;;;;;;4981143;28;20038;-62
2023/11/07 00:58:49;;;;;;;6.40;1.55;;;8.90;99.90;;;;;;4976720;28;20752;-62
2023/11/07 01:01:16;;;;;;;6.57;2.00;;;8.90;99.90;;;;;;4982366;28;20082;-62
2023/11/07 01:03:43;;;;;;;6.28;2.15;;;8.90;99.90;;;;;;4979392;28;20390;-62
2023/11/07 01:06:09;;;;;;;11.25;1.80;;;8.80;99.90;;;;;;4980208;28;20035;-62
2023/11/07 01:08:34;;;;;;;5.70;1.58;;;8.80;99.90;;;;;;4980426;28;20061;-62
2023/11/07 01:11:00;;;;;;;9.20;2.17;;;8.70;99.90;;;;;;4979265;28;20046;-62
2023/11/07 01:13:26;;;;;;;7.03;1.98;;;8.80;99.90;;;;;;4979643;28;20586;-62
2023/11/07 01:15:51;;;;;;;7.20;1.88;;;8.80;99.90;;;;;;4981075;28;20026;-62
2023/11/07 01:18:17;;;;;;;5.57;1.73;;;8.80;99.90;;;;;;4978584;28;20046;-62
2023/11/07 01:20:43;;;;;;;7.03;1.75;;;8.80;99.90;;;;;;4978778;28;20026;-62
2023/11/07 01:23:08;;;;;;;7.53;1.80;;;8.90;99.90;;;;;;4979069;28;20042;-62
2023/11/07 01:25:34;;;;;;;8.98;2.67;;;9.00;99.90;;;;;;4981282;28;20034;-62
2023/11/07 01:27:59;;;;;;;6.22;2.15;;;9.10;99.90;;;;;;4980950;28;20026;-62
2023/11/07 01:30:26;;;;;;;7.57;1.92;;;9.20;99.90;;;;;;4978161;28;20442;-62
2023/11/07 01:32:51;;;;;;;5.13;1.42;;;9.20;99.90;;;;;;4980762;28;20015;-62
2023/11/07 01:35:17;;;;;;;7.65;1.92;;;9.20;99.90;;;;;;4948138;28;20034;-62
2023/11/07 01:37:43;;;;;;;7.60;1.80;;;9.20;99.90;;;;;;4979308;28;20037;-62
2023/11/07 01:40:09;;;;;;;5.18;2.10;;;9.30;99.90;;;;;;4980802;28;20495;-62
2023/11/07 01:42:42;;;;;;;7.85;1.75;;;9.30;99.90;;;;;;4981577;28;20089;-62
2023/11/07 01:45:10;;;;;;;4.38;1.60;;;9.30;99.90;;;;;;4980386;28;20546;-62
2023/11/07 01:47:36;;;;;;;3.08;1.27;;;9.20;99.90;;;;;;4979212;28;20493;-62
2023/11/07 01:50:04;;;;;;;5.07;1.70;;;9.20;99.90;;;;;;4981382;28;20041;-62
2023/11/07 01:52:30;;;;;;;13.13;1.92;;;9.20;99.90;;;;;;4979037;28;20101;-62
2023/11/07 01:54:58;;;;;;;5.95;1.58;;;9.10;99.90;;;;;;4984853;28;20030;-62
2023/11/07 01:57:24;;;;;;;5.30;1.52;;;9.10;99.90;;;;;;4982452;28;20042;-62
2023/11/07 01:59:52;;;;;;;7.72;1.80;;;9.10;99.90;;;;;;4984779;28;20030;-62
2023/11/07 02:02:19;;;;;;;7.20;1.65;;;9.10;99.90;;;;;;4982244;28;20033;-63
2023/11/07 02:04:46;;;;;;;5.85;1.70;;;9.00;99.90;;;;;;4984555;28;20022;-63
2023/11/07 02:07:12;;;;;;;5.95;1.50;;;9.00;99.90;;;;;;4983527;28;20027;-63
2023/11/07 02:09:39;;;;;;;7.00;1.70;;;9.00;99.90;;;;;;4983189;28;20050;-63
2023/11/07 02:12:04;;;;;;;5.72;1.83;;;9.00;99.90;;;;;;4984836;28;20026;-63
2023/11/07 02:14:39;;;;;;;6.95;1.70;;;8.90;99.90;;;;;;4977606;28;20038;-63
2023/11/07 02:17:05;;;;;;;5.50;1.55;;;8.90;99.90;;;;;;4983601;28;20045;-63
2023/11/07 02:19:34;;;;;;;5.05;1.60;;;8.90;99.90;;;;;;4983834;28;20038;-63
2023/11/07 02:22:01;;;;;;;3.83;1.20;;;8.90;99.90;;;;;;4981695;28;20046;-63
2023/11/07 02:24:30;;;;;;;7.93;1.70;;;9.00;99.90;;;;;;4979402;28;20022;-63
2023/11/07 02:26:56;;;;;;;5.78;1.40;;;9.10;99.90;;;;;;4980304;28;20038;-63
2023/11/07 02:29:22;;;;;;;7.80;1.65;;;9.10;99.90;;;;;;4983080;28;20022;-63
2023/11/07 02:31:49;;;;;;;6.40;1.55;;;9.10;99.90;;;;;;4983817;28;20186;-63
2023/11/07 02:34:15;;;;;;;10.43;2.00;;;9.10;99.90;;;;;;4981488;28;20027;-63
2023/11/07 02:36:41;;;;;;;4.95;1.70;;;9.20;99.90;;;;;;4984363;28;20027;-63
2023/11/07 02:39:07;;;;;;;5.88;1.70;;;9.20;99.90;;;;;;4982849;28;20049;-63
2023/11/07 02:41:36;;;;;;;5.18;1.50;;;9.20;99.90;;;;;;4984091;28;20093;-63
2023/11/07 02:44:02;;;;;;;7.25;1.60;;;9.20;99.90;;;;;;4977079;28;20118;-63
2023/11/07 02:46:28;;;;;;;5.65;1.50;;;9.10;99.90;;;;;;4984454;28;20121;-63
2023/11/07 02:48:54;;;;;;;5.35;1.67;;;9.10;99.90;;;;;;4981313;28;20027;-63
2023/11/07 02:51:19;;;;;;;5.93;1.58;;;9.10;99.90;;;;;;4983809;28;20093;-63
2023/11/07 02:53:45;;;;;;;6.30;1.35;;;9.10;99.90;;;;;;4983056;28;20026;-63
2023/11/07 02:56:11;;;;;;;5.60;1.48;;;9.20;99.90;;;;;;4983549;28;20026;-63
2023/11/07 02:58:37;;;;;;;6.85;1.63;;;9.20;99.90;;;;;;4978888;28;20070;-63
2023/11/07 03:01:03;;;;;;;5.30;1.30;;;9.20;99.90;;;;;;4983018;28;20477;-63
2023/11/07 03:03:28;;;;;;;3.95;1.40;;;9.20;99.90;;;;;;4981413;28;20434;-63
2023/11/07 03:05:54;;;;;;;5.70;1.30;;;9.20;99.90;;;;;;4982629;28;20429;-63
2023/11/07 03:08:20;;;;;;;5.28;1.30;;;9.20;99.90;;;;;;4983007;28;20058;-63
2023/11/07 03:10:46;;;;;;;5.47;1.45;;;9.10;99.90;;;;;;4981594;28;20542;-63
2023/11/07 03:13:13;;;;;;;3.45;1.20;;;9.10;99.90;;;;;;4984596;28;20375;-62
2023/11/07 03:15:39;;;;;;;5.03;1.30;;;9.10;99.90;;;;;;4977399;28;20027;-62
2023/11/07 03:18:04;;;;;;;6.35;1.60;;;9.10;99.90;;;;;;4984074;28;20029;-62
2023/11/07 03:20:32;;;;;;;4.18;1.40;;;9.10;99.90;;;;;;4982981;28;20034;-62
2023/11/07 03:23:00;;;;;;;3.67;1.10;;;9.20;99.90;;;;;;4981843;28;20046;-62
2023/11/07 03:25:26;;;;;;;5.05;1.17;;;9.20;99.90;;;;;;4984516;28;20030;-62
2023/11/07 03:27:52;;;;;;;7.45;2.85;;;9.10;99.90;;;;;;4975627;28;20022;-62
2023/11/07 03:30:17;;;;;;;2.97;1.17;;;9.20;99.90;;;;;;4984048;28;20030;-62
2023/11/07 03:32:44;;;;;;;3.83;1.25;;;9.20;99.90;;;;;;4980267;28;20097;-62
2023/11/07 03:35:10;;;;;;;3.22;1.17;;;9.20;99.90;;;;;;4951128;28;20038;-62
2023/11/07 03:37:37;;;;;;;4.43;1.60;;;9.10;99.90;;;;;;4981431;28;20050;-62
2023/11/07 03:40:06;;;;;;;4.13;1.30;;;9.10;99.90;;;;;;4987771;28;20023;-62
2023/11/07 03:42:34;;;;;;;5.43;1.30;;;9.10;99.90;;;;;;4981926;28;20026;-62
2023/11/07 03:45:00;;;;;;;7.80;1.20;;;9.10;99.90;;;;;;4980461;28;20031;-62
2023/11/07 03:47:25;;;;;;;6.43;1.48;;;9.00;99.90;;;;;;4985411;28;20374;-62
2023/11/07 03:49:54;;;;;;;2.67;1.17;;;9.00;99.90;;;;;;4985529;28;20382;-62
2023/11/07 03:52:20;;;;;;;3.33;1.17;;;9.00;99.90;;;;;;4974388;28;20033;-62
2023/11/07 03:54:45;;;;;;;4.05;1.30;;;9.00;99.90;;;;;;4980416;28;20031;-62
2023/11/07 03:57:11;;;;;;;2.55;1.00;;;9.10;99.90;;;;;;4983431;28;20484;-62
2023/11/07 03:59:37;;;;;;;4.05;1.27;;;9.00;99.90;;;;;;4986343;28;20030;-62
2023/11/07 04:02:04;;;;;;;3.38;1.20;;;9.00;99.90;;;;;;4984885;28;20026;-62
2023/11/07 04:04:30;;;;;;;5.00;1.27;;;9.00;99.90;;;;;;4984036;28;20117;-62
2023/11/07 04:06:58;;;;;;;4.20;1.10;;;9.00;99.90;;;;;;4980800;28;20102;-62
2023/11/07 04:09:25;;;;;;;3.67;1.20;;;9.00;99.90;;;;;;4982032;28;20474;-62
2023/11/07 04:11:51;;;;;;;4.38;1.20;;;9.00;99.90;;;;;;4982229;28;20026;-62
2023/11/07 04:14:21;;;;;;;4.43;1.10;;;9.00;99.90;;;;;;4980286;28;20033;-62
2023/11/07 04:16:46;;;;;;;4.25;1.20;;;9.00;99.90;;;;;;4977438;28;20036;-62
2023/11/07 04:19:12;;;;;;;5.20;1.30;;;9.00;99.90;;;;;;4982883;28;20040;-62
2023/11/07 04:21:38;;;;;;;2.72;1.00;;;9.00;99.90;;;;;;4982206;28;20069;-62
2023/11/07 04:24:21;;;;;;;3.95;1.30;;;8.90;99.90;;;;;;4981084;28;20058;-62
2023/11/07 04:26:47;;;;;;;3.85;1.50;;;8.90;99.90;;;;;;4977446;28;20030;-62
2023/11/07 04:29:13;;;;;;;4.43;1.20;;;8.90;99.90;;;;;;4981314;28;20474;-62
2023/11/07 04:31:38;;;;;;;5.35;1.40;;;8.90;99.90;;;;;;4980133;28;20031;-62
2023/11/07 04:34:09;;;;;;;5.22;1.40;;;8.90;99.90;;;;;;4983375;28;20018;-62
2023/11/07 04:36:38;;;;;;;3.63;1.20;;;8.80;99.90;;;;;;4980704;28;20129;-62
2023/11/07 04:39:05;;;;;;;4.53;1.15;;;8.80;99.90;;;;;;4981568;28;20154;-62
2023/11/07 04:41:33;;;;;;;5.45;1.30;;;8.80;99.90;;;;;;4983522;28;20026;-62
2023/11/07 04:44:00;;;;;;;3.22;1.38;;;8.80;99.90;;;;;;4975283;28;20118;-62
2023/11/07 04:46:26;;;;;;;7.28;1.75;;;8.70;99.90;;;;;;4982310;28;20026;-62
2023/11/07 04:48:52;;;;;;;5.70;1.40;;;8.80;99.90;;;;;;4980868;28;20450;-62
2023/11/07 04:51:20;;;;;;;5.55;1.60;;;8.80;99.90;;;;;;4980852;28;20039;-62
2023/11/07 04:53:50;;;;;;;5.60;1.60;;;8.80;99.90;;;;;;4982527;28;20069;-62
2023/11/07 04:56:15;;;;;;;7.10;1.30;;;8.70;99.90;;;;;;4973554;28;20023;-62
2023/11/07 04:58:42;;;;;;;3.90;1.40;;;8.70;99.90;;;;;;4980664;28;20029;-62
2023/11/07 05:01:08;;;;;;;3.65;1.30;;;8.70;99.90;;;;;;4981183;28;20378;-62
2023/11/07 05:03:34;;;;;;;4.28;1.40;;;8.70;99.90;;;;;;4982153;28;20027;-62
2023/11/07 05:06:00;;;;;;;3.75;1.20;;;8.70;99.90;;;;;;4977996;28;20035;-62
2023/11/07 05:08:28;;;;;;;6.18;1.83;;;8.80;99.90;;;;;;4978239;28;20054;-62
2023/11/07 05:10:54;;;;;;;5.72;1.30;;;8.80;99.90;;;;;;4945614;28;20541;-61
2023/11/07 05:13:20;;;;;;;3.85;1.17;;;8.80;99.90;;;;;;4978991;28;20022;-61
2023/11/07 05:15:47;;;;;;;4.60;1.48;;;8.80;99.90;;;;;;4979644;28;20122;-61
2023/11/07 05:18:13;;;;;;;4.55;1.13;;;8.80;99.90;;;;;;4973020;28;20036;-61
2023/11/07 05:20:39;;;;;;;6.65;1.40;;;8.80;99.90;;;;;;4974260;28;20529;-61
2023/11/07 05:23:05;;;;;;;4.03;1.30;;;8.80;99.90;;;;;;4979211;28;20026;-61
2023/11/07 05:25:33;;;;;;;3.80;1.15;;;8.80;99.90;;;;;;4982732;28;20027;-61
2023/11/07 05:28:00;;;;;;;2.05;1.00;;;8.80;99.90;;;;;;4978617;28;20542;-61
2023/11/07 05:30:26;;;;;;;5.50;1.25;;;8.80;99.90;;;;;;4946557;28;20038;-63
2023/11/07 05:32:51;;;;;;;3.10;1.13;;;8.90;99.90;;;;;;4980154;28;20023;-62
2023/11/07 05:35:17;;;;;;;2.42;1.17;;;8.90;99.90;;;;;;4978846;28;20034;-62
2023/11/07 05:37:46;;;;;;;3.78;1.30;;;8.90;99.90;;;;;;4984104;28;20042;-61
2023/11/07 05:40:13;;;;;;;10.13;1.30;;;9.00;99.90;;;;;;4985473;28;20121;-62
2023/11/07 05:42:42;;;;;;;4.43;1.20;;;8.90;99.90;;;;;;4975361;28;20030;-61
2023/11/07 05:45:10;;;;;;;4.83;1.20;;;9.00;99.90;;;;;;4983654;28;20031;-62
2023/11/07 05:47:38;;;;;;;6.28;1.20;;;9.00;99.90;;;;;;4984273;28;20042;-62
2023/11/07 05:50:07;;;;;;;3.08;1.15;;;9.00;99.90;;;;;;4980575;28;20031;-62
2023/11/07 05:52:33;;;;;;;3.90;1.23;;;9.00;99.90;;;;;;4984067;28;20022;-62
2023/11/07 05:55:10;;;;;;;3.75;1.33;;;9.00;99.90;;;;;;4984512;28;20035;-62
2023/11/07 05:57:36;;;;;;;4.20;1.23;;;9.00;99.90;;;;;;4982243;28;20160;-62
2023/11/07 06:00:07;;;;;;;3.58;1.25;;;9.00;99.90;;;;;;4983570;28;20023;-61
2023/11/07 06:02:33;;;;;;;3.65;1.33;;;9.00;99.90;;;;;;4978957;28;20061;-61
2023/11/07 06:04:58;;;;;;;2.20;1.00;;;9.00;99.90;;;;;;4977564;28;20062;-61
2023/11/07 06:07:24;;;;;;;2.42;1.00;;;8.90;99.90;;;;;;4981849;28;20030;-61
2023/11/07 06:09:50;;;;;;;2.97;1.25;;;8.90;99.90;;;;;;4980628;28;20196;-62
2023/11/07 06:12:15;;;;;;;4.85;1.30;;;9.00;99.90;;;;;;4974040;28;20015;-62
2023/11/07 06:14:41;;;;;;;5.00;1.10;;;9.00;99.90;;;;;;4974258;28;20102;-62
2023/11/07 06:17:07;;;;;;;4.78;0.98;;;9.00;99.90;;;;;;4978202;28;20031;-62
2023/11/07 06:19:33;;;;;;;4.38;1.70;;;9.00;99.90;;;;;;4982128;28;20051;-61
2023/11/07 06:21:59;;;;;;;6.28;1.20;;;9.00;99.90;;;;;;4981285;28;20145;-62
2023/11/07 06:24:24;;;;;;;3.95;1.13;;;9.00;99.90;;;;;;4947391;28;20054;-62
2023/11/07 06:26:50;;;;;;;3.70;1.13;;;9.00;99.90;;;;;;4941323;28;20122;-62
2023/11/07 06:29:16;;;;;;;3.17;1.15;;;8.90;99.90;;;;;;4980618;28;20027;-62
2023/11/07 06:31:45;;;;;;;2.60;1.20;;;9.00;99.90;;;;;;4982900;28;20023;-61
2023/11/07 06:34:11;;;;;;;3.53;1.20;;;9.00;99.90;;;;;;4947169;28;20058;-61
2023/11/07 06:36:37;;;;;;;3.45;1.17;;;9.00;99.90;;;;;;4980277;28;20468;-61
2023/11/07 06:39:03;;;;;;;6.00;1.67;;;9.00;99.90;;;;;;4976457;28;20034;-61
2023/11/07 06:41:28;;;;;;;4.18;1.30;;;9.00;99.90;;;;;;4982043;28;20347;-63
2023/11/07 06:43:54;;;;;;;3.67;1.38;;;9.00;99.90;;;;;;4977784;28;20035;-62
2023/11/07 06:46:23;;;;;;;4.72;1.45;;;8.90;99.90;;;;;;4980277;28;20033;-62
2023/11/07 06:48:48;;;;;;;4.70;1.40;;;9.00;99.90;;;;;;4982031;28;20101;-62
2023/11/07 06:51:17;;;;;;;7.75;2.00;;;9.00;99.90;;;;;;4975051;28;20415;-62
2023/11/07 06:53:44;;;;;;;4.88;1.50;;;9.00;99.90;;;;;;4977544;28;20026;-62
2023/11/07 06:56:10;;;;;;;5.55;1.52;;;9.00;99.90;;;;;;4975911;28;20137;-62
2023/11/07 06:58:45;;;;;;;3.58;1.27;;;8.90;99.90;;;;;;4974452;28;20117;-62
2023/11/07 07:01:14;;;;;;;7.07;1.40;;;8.90;99.90;;;;;;4972878;28;20031;-63
2023/11/07 07:03:42;;;;;;;6.13;1.70;;;8.90;99.90;;;;;;4980208;28;20113;-62
2023/11/07 07:06:08;;;;;;;4.43;1.60;;;8.90;99.90;;;;;;4980063;28;20109;-62
2023/11/07 07:08:33;;;;;;;5.15;1.33;;;8.90;99.90;;;;;;4980107;28;20471;-62
2023/11/07 07:11:00;;;;;;;7.13;1.63;;;8.80;99.90;;;;;;4979207;28;20106;-62
2023/11/07 07:13:26;;;;;;;4.65;1.55;;;8.80;99.90;;;;;;4976094;28;20023;-62
2023/11/07 07:15:51;;;;;;;3.22;1.30;;;8.80;99.90;;;;;;4981362;28;20046;-62
2023/11/07 07:18:22;;;;;;;6.20;1.85;;;8.80;99.90;;;;;;4981005;28;20106;-62
2023/11/07 07:20:51;;;;;;;4.38;1.55;;;8.90;99.90;;;;;;4974698;28;20043;-62
2023/11/07 07:23:17;;;;;;;6.22;1.25;;;8.70;99.90;;;;;;4975884;28;20040;-62
2023/11/07 07:25:43;;;;;;;5.88;1.35;;;8.70;99.90;;;;;;4982028;28;20030;-62
2023/11/07 07:28:09;;;;;;;5.07;1.50;;;8.70;99.90;;;;;;4978675;28;20621;-63
2023/11/07 07:30:37;;;;;;;5.63;1.63;;;8.70;99.90;;;;;;4978702;28;20137;-62
2023/11/07 07:33:06;;;;;;;7.82;1.75;;;8.70;99.90;;;;;;4981978;28;20085;-63
2023/11/07 07:35:32;;;;;;;3.88;1.30;;;8.70;99.90;;;;;;4976302;28;20026;-62
2023/11/07 07:38:02;;;;;;;3.67;1.40;;;8.70;99.90;;;;;;4979768;28;20022;-62
2023/11/07 07:40:29;;;;;;;3.75;1.50;;;8.70;99.90;;;;;;4982817;28;20066;-62
2023/11/07 07:42:59;;;;;;;3.92;1.40;;;8.70;99.90;;;;;;4978653;28;20034;-62
2023/11/07 07:45:26;;;;;;;5.47;1.38;;;8.70;99.90;;;;;;4981589;28;20034;-62
2023/11/07 07:47:52;;;;;;;4.53;1.38;;;8.80;99.90;;;;;;4946179;28;20042;-62
2023/11/07 07:50:19;;;;;;;4.80;1.27;;;8.80;99.90;;;;;;4980318;28;20102;-62
2023/11/07 07:52:45;;;;;;;3.83;1.30;;;8.80;99.90;;;;;;4981535;28;20045;-64
2023/11/07 07:55:11;;;;;;;4.18;1.50;;;8.70;99.90;;;;;;4973683;28;20030;-64
2023/11/07 07:57:41;;;;;;;4.38;1.38;;;8.70;99.90;;;;;;4978964;28;20062;-64
2023/11/07 08:00:15;;;;;;;3.35;1.30;;;8.70;99.90;;;;;;4980980;28;20030;-64
2023/11/07 08:02:47;;;;;;;3.67;1.30;;;8.70;99.90;;;;;;4945607;28;20038;-64
2023/11/07 08:05:20;;;;;;;4.82;1.30;;;8.70;99.90;;;;;;4978844;28;20041;-64
2023/11/07 08:07:47;;;;;;;5.50;1.40;;;8.60;99.90;;;;;;4977453;28;20217;-64
2023/11/07 08:10:22;;;;;;;4.13;1.30;;;8.60;99.90;;;;;;4981290;28;20026;-64
2023/11/07 08:12:51;;;;;;;3.03;1.20;;;8.70;99.90;;;;;;4947390;28;20061;-64
2023/11/07 08:15:17;;;;;;;4.43;0.98;;;8.80;99.90;;;;;;4981211;28;20037;-64
2023/11/07 08:17:43;;;;;;;4.00;1.30;;;8.90;99.90;;;;;;4977904;28;20034;-64
2023/11/07 08:20:15;;;;;;;3.08;1.05;;;9.00;99.90;;;;;;4979170;28;20049;-64
2023/11/07 08:22:45;;;;;;;8.48;1.40;;;9.10;99.90;;;;;;4979656;28;20102;-64
2023/11/07 08:25:11;;;;;;;2.53;1.00;;;9.20;99.90;;;;;;4977899;28;20027;-64
2023/11/07 08:27:38;;;;;;;4.00;1.13;;;9.50;99.90;;;;;;4979370;28;20585;-64
2023/11/07 08:30:16;;;;;;;2.25;1.02;;;9.80;99.90;;;;;;4945286;28;20015;-64
2023/11/07 08:32:43;;;;;;;4.32;1.40;;;10.20;99.90;;;;;;4978167;28;20053;-64
2023/11/07 08:35:15;;;;;;;5.07;1.38;;;10.50;99.90;;;;;;4980818;28;20106;-64
2023/11/07 08:37:42;;;;;;;3.35;0.98;;;10.80;99.90;;;;;;4977289;28;20034;-64
2023/11/07 08:40:08;;;;;;;2.67;1.00;;;11.00;99.90;;;;;;4980229;28;20039;-64
2023/11/07 08:42:43;;;;;;;3.15;1.17;;;11.10;99.90;;;;;;4980100;28;20026;-64
2023/11/07 08:45:15;;;;;;;1.30;0.95;;;11.10;99.90;;;;;;4979082;28;20026;-64
2023/11/07 08:47:59;;;;;;;2.13;1.00;;;11.10;99.90;;;;;;4979881;28;20030;-64
2023/11/07 08:50:25;;;;;;;5.32;1.27;;;11.10;99.90;;;;;;4977393;28;20039;-64
2023/11/07 08:52:51;;;;;;;4.68;1.08;;;11.20;99.90;;;;;;4976850;28;20046;-65
2023/11/07 08:55:18;;;;;;;2.80;1.02;;;11.20;99.90;;;;;;4980771;28;20026;-65
2023/11/07 08:57:44;;;;;;;2.40;1.00;;;11.30;99.90;;;;;;4975860;28;20027;-65
2023/11/07 09:00:12;;;;;;;2.33;1.00;;;11.70;99.90;;;;;;4975354;28;20033;-64
2023/11/07 09:02:39;;;;;;;3.50;1.15;;;11.90;99.90;;;;;;4979079;28;20433;-63
2023/11/07 09:05:08;;;;;;;3.60;1.20;;;11.90;99.90;;;;;;4979099;28;20044;-63
2023/11/07 09:07:37;;;;;;;4.30;1.20;;;11.80;99.90;;;;;;4972913;28;20045;-63
2023/11/07 09:10:04;;;;;;;2.22;1.00;;;11.80;99.90;;;;;;4979124;28;20118;-63
2023/11/07 09:12:30;;;;;;;4.45;1.30;;;11.60;99.90;;;;;;4946211;28;20066;-63
2023/11/07 09:14:56;;;;;;;2.15;0.90;;;11.40;99.90;;;;;;4976136;28;20049;-63
2023/11/07 09:17:21;;;;;;;3.97;1.20;;;11.20;99.90;;;;;;4940516;29;20042;-63
2023/11/07 09:19:47;;;;;;;3.10;1.20;;;11.20;99.90;;;;;;4976964;28;20034;-63
2023/11/07 09:22:13;;;;;;;2.92;1.20;;;11.10;99.90;;;;;;4979257;28;20023;-63
2023/11/07 09:24:39;;;;;;;4.63;1.30;;;11.10;99.90;;;;;;4946582;28;20034;-63
2023/11/07 09:27:09;;;;;;;3.15;1.27;;;11.10;99.90;;;;;;4976629;28;20026;-63
2023/11/07 09:29:37;;;;;;;5.97;1.40;;;11.00;99.90;;;;;;4980155;28;20026;-63
2023/11/07 09:32:06;;;;;;;3.58;1.20;;;10.90;99.90;;;;;;4969090;28;20047;-63
2023/11/07 09:34:32;;;;;;;6.10;1.50;;;11.00;99.90;;;;;;4978911;28;20414;-63
2023/11/07 09:37:01;;;;;;;4.43;1.30;;;11.00;99.90;;;;;;4978639;28;20062;-63
2023/11/07 09:39:26;;;;;;;4.25;1.33;;;11.10;99.90;;;;;;4977845;28;20130;-63
2023/11/07 09:41:52;;;;;;;5.57;1.88;;;11.10;99.90;;;;;;4980637;28;20102;-63
2023/11/07 09:44:18;;;;;;;5.55;1.50;;;11.00;99.90;;;;;;4976360;28;20038;-63
2023/11/07 09:46:47;;;;;;;4.25;1.40;;;11.00;99.90;;;;;;4978577;28;20023;-63
2023/11/07 09:49:12;;;;;;;5.25;1.33;;;11.00;99.90;;;;;;4978422;28;20034;-63
2023/11/07 09:51:42;;;;;;;3.58;1.27;;;11.10;99.90;;;;;;4977108;28;20033;-63
2023/11/07 09:54:08;;;;;;;4.15;1.45;;;11.30;99.90;;;;;;4941221;28;20116;-63
2023/11/07 09:56:40;;;;;;;11.07;1.70;;;11.30;99.90;;;;;;4975822;28;20027;-63
2023/11/07 09:59:23;;;;;;;6.00;1.50;;;11.30;99.90;;;;;;4976618;28;20101;-63
2023/11/07 10:01:49;;;;;;;4.95;1.50;;;11.10;99.90;;;;;;4976155;28;20031;-63
2023/11/07 10:04:15;;;;;;;4.03;1.30;;;11.10;99.90;;;;;;4976992;28;20085;-63
2023/11/07 10:06:41;;;;;;;3.30;1.25;;;11.10;99.90;;;;;;4979411;28;20038;-63
2023/11/07 10:09:07;;;;;;;6.82;1.50;;;11.00;99.90;;;;;;4975837;28;20098;-63
2023/11/07 10:11:44;;;;;;;4.32;1.48;;;11.00;99.90;;;;;;4979912;28;20026;-62
2023/11/07 10:14:10;;;;;;;5.18;1.42;;;11.10;99.90;;;;;;4980730;28;20137;-62
2023/11/07 10:16:41;;;;;;;6.38;1.60;;;11.10;99.90;;;;;;4983460;28;20030;-62
2023/11/07 10:19:14;;;;;;;5.47;1.70;;;11.10;99.90;;;;;;4977306;28;20117;-62
2023/11/07 10:21:40;;;;;;;6.53;1.77;;;11.10;99.90;;;;;;4982681;28;20026;-62
2023/11/07 10:24:06;;;;;;;5.90;1.77;;;10.90;99.90;;;;;;4979581;28;20050;-62
2023/11/07 10:26:34;;;;;;;4.95;1.70;;;10.80;99.90;;;;;;4974921;28;20023;-62
2023/11/07 10:29:16;;;;;;;5.25;1.80;;;10.70;99.90;;;;;;4981493;28;20050;-62
2023/11/07 10:31:42;;;;;;;3.85;1.52;;;10.70;99.90;;;;;;4976210;28;20114;-62
2023/11/07 10:34:12;;;;;;;6.95;2.08;;;10.80;99.90;;;;;;4981612;28;20061;-62
2023/11/07 10:36:38;;;;;;;12.57;1.88;;;10.80;99.90;;;;;;4980841;28;20034;-62
2023/11/07 10:39:04;;;;;;;6.72;1.98;;;10.80;99.90;;;;;;4981784;28;20061;-62
2023/11/07 10:41:30;;;;;;;4.95;1.67;;;10.80;99.90;;;;;;4983466;28;20062;-62
2023/11/07 10:43:58;;;;;;;8.32;2.53;;;10.90;99.90;;;;;;4979839;28;20027;-62
2023/11/07 10:46:25;;;;;;;6.07;2.08;;;10.80;99.90;;;;;;4981684;28;20019;-62
2023/11/07 10:48:53;;;;;;;4.45;1.52;;;10.80;99.90;;;;;;4981285;28;20506;-62
2023/11/07 10:51:20;;;;;;;6.65;2.17;;;10.90;99.90;;;;;;4979318;28;20027;-62
2023/11/07 10:53:48;;;;;;;8.20;2.10;;;10.90;99.90;;;;;;4982634;28;20019;-62
2023/11/07 10:56:18;;;;;;;8.48;2.10;;;11.00;99.90;;;;;;4977966;28;20031;-63
2023/11/07 10:58:59;;;;;;;8.27;1.88;;;11.10;99.90;;;;;;4981018;28;20026;-62
2023/11/07 11:01:27;;;;;;;5.25;1.88;;;11.10;99.90;;;;;;4974594;28;20436;-62
2023/11/07 11:03:54;;;;;;;9.32;2.55;;;11.10;99.90;;;;;;4978811;28;20053;-62
2023/11/07 11:06:23;;;;;;;6.13;2.15;;;11.10;99.90;;;;;;4977746;28;20057;-62
2023/11/07 11:08:56;;;;;;;6.80;1.90;;;11.20;99.90;;;;;;4975675;28;20055;-62
2023/11/07 11:11:24;;;;;;;4.95;1.63;;;11.20;99.90;;;;;;4982680;28;20467;-62
2023/11/07 11:13:53;;;;;;;4.85;1.70;;;11.30;99.90;;;;;;4980101;28;20542;-62
2023/11/07 11:16:20;;;;;;;5.70;1.60;;;11.20;99.90;;;;;;4978494;28;20565;-62
2023/11/07 11:18:56;;;;;;;5.00;1.52;;;11.10;99.90;;;;;;4979785;28;20030;-62
2023/11/07 11:21:47;;;;;;;4.32;1.60;;;11.10;99.90;;;;;;4979582;28;20450;-62
2023/11/07 11:24:28;;;;;;;10.40;1.52;;;11.10;99.90;;;;;;4947524;28;20533;-63
2023/11/07 11:27:03;;;;;;;8.15;1.88;;;11.10;99.90;;;;;;4977438;28;20031;-63
2023/11/07 11:29:29;;;;;;;5.05;1.70;;;11.20;99.90;;;;;;4978817;28;20042;-63
2023/11/07 11:31:56;;;;;;;7.07;1.77;;;11.30;99.90;;;;;;4981707;28;20047;-63
2023/11/07 11:34:31;;;;;;;4.95;1.60;;;11.30;99.90;;;;;;4981717;28;20426;-63
2023/11/07 11:36:59;;;;;;;7.45;1.58;;;11.40;99.90;;;;;;4979019;28;20042;-63
2023/11/07 11:39:45;;;;;;;4.70;1.65;;;11.50;99.90;;;;;;4981835;28;20493;-63
2023/11/07 11:42:11;;;;;;;4.22;1.52;;;11.70;99.90;;;;;;4944503;28;20061;-63
2023/11/07 11:44:38;;;;;;;4.50;1.73;;;11.90;99.90;;;;;;4980990;28;20117;-63
2023/11/07 11:47:04;;;;;;;4.32;1.20;;;11.90;99.90;;;;;;4979745;28;20054;-63
2023/11/07 11:49:32;;;;;;;4.80;1.60;;;12.00;99.90;;;;;;4979445;28;20023;-63
2023/11/07 11:51:58;;;;;;;6.35;1.65;;;11.90;99.90;;;;;;4978271;28;20023;-63
2023/11/07 11:54:26;;;;;;;4.97;1.45;;;11.80;99.90;;;;;;4945469;28;20023;-63
2023/11/07 11:56:53;;;;;;;5.20;1.73;;;11.60;99.90;;;;;;4979437;28;20031;-63
2023/11/07 11:59:49;;;;;;;5.95;1.67;;;11.40;99.90;;;;;;4978596;28;20112;-63
2023/11/07 12:02:44;;;;;;;3.28;1.40;;;11.40;99.90;;;;;;4979231;28;20470;-63
2023/11/07 12:05:17;;;;;;;7.30;1.40;;;12.20;99.90;;;;;;4980433;28;20058;-63
2023/11/07 12:07:44;;;;;;;3.83;1.20;;;13.20;99.90;;;;;;4979409;28;20023;-63
2023/11/07 12:10:09;;;;;;;5.00;1.40;;;13.10;99.90;;;;;;4978921;28;20557;-63
2023/11/07 12:12:37;;;;;;;6.25;1.30;;;12.70;99.90;;;;;;4981039;28;20029;-63
2023/11/07 12:15:03;;;;;;;4.45;1.20;;;12.30;99.90;;;;;;4972826;28;20083;-63
2023/11/07 12:17:42;;;;;;;4.53;1.23;;;12.40;99.90;;;;;;4980772;28;20498;-63
2023/11/07 12:20:14;;;;;;;5.55;1.48;;;12.00;99.90;;;;;;4978990;28;20036;-63
2023/11/07 12:22:47;;;;;;;5.93;1.40;;;12.00;99.90;;;;;;4975303;28;20469;-64
2023/11/07 12:25:19;;;;;;;3.65;1.30;;;12.10;99.90;;;;;;4980086;28;20048;-64
2023/11/07 12:28:03;;;;;;;5.47;1.27;;;12.30;99.90;;;;;;4972074;28;20023;-64
2023/11/07 12:30:30;;;;;;;4.55;1.35;;;12.20;99.90;;;;;;4977988;28;20031;-64
2023/11/07 12:33:10;;;;;;;9.88;1.30;;;12.10;99.90;;;;;;4981012;28;20026;-64
2023/11/07 12:35:39;;;;;;;5.47;1.50;;;11.90;99.90;;;;;;4947376;28;20053;-64
2023/11/07 12:38:07;;;;;;;3.30;1.20;;;11.70;99.90;;;;;;4944368;28;20047;-64
2023/11/07 12:40:35;;;;;;;10.15;1.60;;;11.70;99.90;;;;;;4981359;28;20038;-63
2023/11/07 12:43:01;;;;;;;5.53;1.60;;;11.80;99.90;;;;;;4979308;28;20034;-63
2023/11/07 12:45:29;;;;;;;5.60;1.40;;;12.00;99.90;;;;;;4978930;28;20110;-63
2023/11/07 12:48:05;;;;;;;4.70;1.52;;;12.00;99.90;;;;;;4977522;28;20026;-63
2023/11/07 12:50:34;;;;;;;9.68;2.33;;;12.00;99.90;;;;;;4979154;28;20026;-63
2023/11/07 12:53:06;;;;;;;4.20;1.40;;;12.00;99.90;;;;;;4978096;28;20088;-63
2023/11/07 12:55:35;;;;;;;4.82;1.48;;;12.00;99.90;;;;;;4974176;28;20031;-63